createdAt,value
2022-12-16T00:01:39.120Z,1.00
2022-12-16T00:04:07.095Z,1.00
2022-12-16T00:06:36.473Z,1.00
2022-12-16T00:09:04.528Z,1.10
2022-12-16T00:11:32.595Z,1.20
2022-12-16T00:14:00.647Z,1.30
2022-12-16T00:16:30.319Z,1.40
2022-12-16T00:18:58.266Z,1.30
2022-12-16T00:21:29.549Z,1.40
2022-12-16T00:23:58.094Z,1.40
2022-12-16T00:26:26.260Z,1.30
2022-12-16T00:28:54.846Z,1.30
2022-12-16T00:31:22.990Z,1.20
2022-12-16T00:33:52.944Z,1.20
2022-12-16T00:36:20.869Z,1.30
2022-12-16T00:38:48.862Z,1.40
2022-12-16T00:41:16.770Z,1.40
2022-12-16T00:43:44.780Z,1.40
2022-12-16T00:46:12.826Z,1.30
2022-12-16T00:48:40.808Z,1.40
2022-12-16T00:51:10.127Z,1.30
2022-12-16T00:53:38.200Z,1.30
2022-12-16T00:56:08.476Z,1.30
2022-12-16T00:58:36.844Z,1.30
2022-12-16T01:01:05.833Z,1.30
2022-12-16T01:03:34.043Z,1.30
2022-12-16T01:06:02.095Z,1.30
2022-12-16T01:08:31.411Z,1.30
2022-12-16T01:11:00.021Z,1.30
2022-12-16T01:13:28.332Z,1.40
2022-12-16T01:15:56.470Z,1.40
2022-12-16T01:18:24.444Z,1.30
2022-12-16T01:20:52.502Z,1.40
2022-12-16T01:23:22.764Z,1.60
2022-12-16T01:25:59.081Z,1.40
2022-12-16T01:28:27.053Z,1.40
2022-12-16T01:30:57.937Z,1.30
2022-12-16T01:33:25.877Z,1.20
2022-12-16T01:36:00.888Z,1.20
2022-12-16T01:38:29.016Z,1.20
2022-12-16T01:40:58.785Z,1.20
2022-12-16T01:43:29.443Z,1.20
2022-12-16T01:46:01.344Z,1.30
2022-12-16T01:48:39.328Z,1.30
2022-12-16T01:51:12.528Z,1.40
2022-12-16T01:53:42.648Z,1.40
2022-12-16T01:56:13.732Z,1.30
2022-12-16T01:58:43.592Z,1.40
2022-12-16T02:01:11.586Z,1.30
2022-12-16T02:03:39.997Z,1.30
2022-12-16T02:06:08.755Z,1.30
2022-12-16T02:08:36.747Z,1.20
2022-12-16T02:11:28.657Z,1.20
2022-12-16T02:14:23.083Z,1.20
2022-12-16T02:16:56.809Z,1.10
2022-12-16T02:20:00.107Z,1.10
2022-12-16T02:22:41.279Z,1.10
2022-12-16T02:25:44.120Z,1.10
2022-12-16T02:28:28.076Z,1.30
2022-12-16T02:31:16.938Z,1.30
2022-12-16T02:33:58.894Z,1.30
2022-12-16T02:36:38.407Z,1.40
2022-12-16T02:39:14.007Z,1.40
2022-12-16T02:41:48.240Z,1.40
2022-12-16T02:44:17.423Z,1.50
2022-12-16T02:46:53.939Z,1.50
2022-12-16T02:49:47.547Z,1.50
2022-12-16T02:52:16.226Z,1.50
2022-12-16T02:54:45.398Z,1.40
2022-12-16T02:57:29.455Z,1.50
2022-12-16T03:00:03.264Z,1.60
2022-12-16T03:02:42.948Z,1.50
2022-12-16T03:05:15.656Z,1.40
2022-12-16T03:07:46.017Z,1.30
2022-12-16T03:10:18.639Z,1.30
2022-12-16T03:12:47.559Z,1.30
2022-12-16T03:15:19.766Z,1.30
2022-12-16T03:17:50.025Z,1.30
2022-12-16T03:20:23.118Z,1.20
2022-12-16T03:22:53.717Z,1.20
2022-12-16T03:25:23.582Z,1.10
2022-12-16T03:27:58.531Z,1.20
2022-12-16T03:30:29.397Z,1.10
2022-12-16T03:33:03.567Z,1.20
2022-12-16T03:35:37.665Z,1.00
2022-12-16T03:38:08.926Z,1.00
2022-12-16T03:40:39.105Z,1.00
2022-12-16T03:43:07.978Z,0.90
2022-12-16T03:45:39.392Z,0.90
2022-12-16T03:48:11.117Z,1.00
2022-12-16T03:50:40.590Z,1.00
2022-12-16T03:53:08.922Z,1.10
2022-12-16T03:55:36.898Z,1.20
2022-12-16T03:58:04.827Z,1.10
2022-12-16T04:00:32.785Z,1.10
2022-12-16T04:03:00.864Z,1.20
2022-12-16T04:05:30.313Z,1.20
2022-12-16T04:08:01.884Z,1.00
2022-12-16T04:10:47.977Z,0.80
2022-12-16T04:13:33.794Z,0.80
2022-12-16T04:16:19.481Z,0.60
2022-12-16T04:19:06.221Z,0.60
2022-12-16T04:21:49.527Z,0.50
2022-12-16T04:24:20.680Z,0.50
2022-12-16T04:27:13.453Z,0.50
2022-12-16T04:29:57.147Z,0.50
2022-12-16T04:32:25.386Z,0.50
2022-12-16T04:34:52.413Z,0.60
2022-12-16T04:37:39.160Z,0.60
2022-12-16T04:40:25.890Z,0.60
2022-12-16T04:43:11.524Z,0.70
2022-12-16T04:45:57.699Z,0.60
2022-12-16T04:48:42.935Z,0.50
2022-12-16T04:51:28.753Z,0.40
2022-12-16T04:54:15.637Z,0.40
2022-12-16T04:57:01.240Z,0.40
2022-12-16T04:59:46.538Z,0.40
2022-12-16T05:02:31.855Z,0.40
2022-12-16T05:05:17.279Z,0.50
2022-12-16T05:08:02.728Z,0.50
2022-12-16T05:10:49.769Z,0.50
2022-12-16T05:13:35.499Z,0.50
2022-12-16T05:16:21.398Z,0.50
2022-12-16T05:19:07.114Z,0.50
2022-12-16T05:21:52.414Z,0.50
2022-12-16T05:24:38.137Z,0.50
2022-12-16T05:27:39.797Z,0.50
2022-12-16T05:30:31.970Z,0.50
2022-12-16T05:33:18.951Z,0.50
2022-12-16T05:36:04.275Z,0.40
2022-12-16T05:38:50.257Z,0.40
2022-12-16T05:41:35.884Z,0.40
2022-12-16T05:44:28.444Z,0.50
2022-12-16T05:47:13.898Z,0.40
2022-12-16T05:49:59.342Z,0.40
2022-12-16T05:52:44.956Z,0.40
2022-12-16T05:55:33.874Z,0.30
2022-12-16T05:58:20.010Z,0.40
2022-12-16T06:01:03.265Z,0.40
2022-12-16T06:03:48.865Z,0.30
2022-12-16T06:06:34.332Z,0.30
2022-12-16T06:09:19.713Z,0.40
2022-12-16T06:12:05.668Z,0.40
2022-12-16T06:14:53.515Z,0.50
2022-12-16T06:17:41.078Z,0.40
2022-12-16T06:20:27.454Z,0.20
2022-12-16T06:23:13.484Z,0.20
2022-12-16T06:25:59.406Z,0.20
2022-12-16T06:28:46.093Z,0.20
2022-12-16T06:31:34.415Z,0.20
2022-12-16T06:34:21.773Z,0.30
2022-12-16T06:37:07.070Z,0.30
2022-12-16T06:39:53.351Z,0.30
2022-12-16T06:42:39.143Z,0.30
2022-12-16T06:45:28.900Z,0.30
2022-12-16T06:48:16.887Z,0.30
2022-12-16T06:51:03.601Z,0.30
2022-12-16T06:53:49.041Z,0.30
2022-12-16T06:56:34.507Z,0.20
2022-12-16T06:59:20.253Z,0.30
2022-12-16T07:02:05.976Z,0.30
2022-12-16T07:04:51.513Z,0.30
2022-12-16T07:07:38.217Z,0.20
2022-12-16T07:10:24.060Z,0.10
2022-12-16T07:13:10.751Z,0.20
2022-12-16T07:15:56.117Z,0.20
2022-12-16T07:18:41.893Z,0.20
2022-12-16T07:21:27.308Z,0.10
2022-12-16T07:24:14.111Z,0.00
2022-12-16T07:26:59.618Z,-0.10
2022-12-16T07:29:44.896Z,-0.10
2022-12-16T07:32:30.105Z,-0.10
2022-12-16T07:35:15.528Z,-0.10
2022-12-16T07:38:01.123Z,0.00
2022-12-16T07:40:48.128Z,0.00
2022-12-16T07:43:34.142Z,0.00
2022-12-16T07:46:20.130Z,0.00
2022-12-16T07:49:05.768Z,0.00
2022-12-16T07:51:51.565Z,-0.10
2022-12-16T07:54:37.266Z,-0.10
2022-12-16T07:57:24.361Z,-0.10
2022-12-16T08:00:09.702Z,-0.10
2022-12-16T08:02:58.657Z,-0.10
2022-12-16T08:05:44.232Z,-0.10
2022-12-16T08:08:29.758Z,0.00
2022-12-16T08:11:15.256Z,0.00
2022-12-16T08:14:02.299Z,0.00
2022-12-16T08:16:47.668Z,0.10
2022-12-16T08:19:33.501Z,0.00
2022-12-16T08:22:18.838Z,0.10
2022-12-16T08:25:04.434Z,0.20
2022-12-16T08:27:49.805Z,0.20
2022-12-16T08:30:36.461Z,0.30
2022-12-16T08:33:22.089Z,0.20
2022-12-16T08:36:07.326Z,0.00
2022-12-16T08:38:53.041Z,0.10
2022-12-16T08:41:38.916Z,0.10
2022-12-16T08:44:24.608Z,0.10
2022-12-16T08:47:11.653Z,0.10
2022-12-16T08:49:59.886Z,0.00
2022-12-16T08:52:48.184Z,0.00
2022-12-16T08:55:33.914Z,-0.10
2022-12-16T08:58:19.393Z,-0.20
2022-12-16T09:01:07.338Z,-0.10
2022-12-16T09:03:56.657Z,-0.10
2022-12-16T09:06:42.178Z,0.00
2022-12-16T09:09:28.749Z,0.00
2022-12-16T09:12:10.627Z,0.10
2022-12-16T09:14:56.244Z,0.10
2022-12-16T09:17:41.877Z,0.10
2022-12-16T09:20:29.818Z,0.00
2022-12-16T09:23:15.209Z,0.00
2022-12-16T09:26:00.550Z,0.00
2022-12-16T09:28:45.884Z,0.00
2022-12-16T09:31:31.857Z,0.00
2022-12-16T09:34:17.332Z,0.00
2022-12-16T09:37:04.290Z,0.00
2022-12-16T09:39:50.072Z,0.10
2022-12-16T09:42:44.458Z,0.10
2022-12-16T09:45:37.446Z,0.10
2022-12-16T09:48:29.317Z,0.00
2022-12-16T09:51:17.595Z,0.00
2022-12-16T09:54:05.974Z,0.00
2022-12-16T09:56:55.310Z,0.00
2022-12-16T09:59:46.328Z,0.10
2022-12-16T10:02:34.368Z,0.20
2022-12-16T10:05:34.746Z,0.20
2022-12-16T10:08:27.807Z,0.10
2022-12-16T10:11:19.415Z,0.00
2022-12-16T10:14:15.992Z,-0.10
2022-12-16T10:17:11.742Z,-0.20
2022-12-16T10:20:09.124Z,-0.10
2022-12-16T10:23:01.572Z,-0.10
2022-12-16T10:25:53.901Z,-0.10
2022-12-16T10:29:00.787Z,0.00
2022-12-16T10:31:47.053Z,-0.10
2022-12-16T10:34:35.309Z,0.00
2022-12-16T10:37:21.597Z,0.00
2022-12-16T10:40:09.948Z,0.10
2022-12-16T10:43:00.609Z,0.20
2022-12-16T10:45:53.177Z,0.20
2022-12-16T10:48:53.576Z,0.10
2022-12-16T10:51:43.581Z,-0.10
2022-12-16T10:54:44.456Z,0.00
2022-12-16T10:57:37.468Z,0.10
2022-12-16T11:00:31.544Z,0.10
2022-12-16T11:03:37.238Z,0.10
2022-12-16T11:06:23.905Z,0.10
2022-12-16T11:09:09.643Z,0.00
2022-12-16T11:11:55.564Z,0.10
2022-12-16T11:15:05.482Z,0.10
2022-12-16T11:17:49.714Z,0.00
2022-12-16T11:20:38.491Z,0.00
2022-12-16T11:23:39.042Z,-0.10
2022-12-16T11:26:30.473Z,-0.20
2022-12-16T11:29:29.404Z,-0.30
2022-12-16T11:32:35.602Z,-0.40
2022-12-16T11:35:23.347Z,-0.40
2022-12-16T11:38:12.908Z,-0.30
2022-12-16T11:40:58.973Z,-0.40
2022-12-16T11:43:48.104Z,-0.40
2022-12-16T11:49:55.761Z,-0.30
2022-12-16T11:52:41.928Z,-0.20
2022-12-16T11:56:04.821Z,-0.20
2022-12-16T11:58:55.204Z,-0.10
2022-12-16T12:01:46.055Z,-0.10
2022-12-16T12:04:33.042Z,0.00
2022-12-16T12:07:45.670Z,-0.10
2022-12-16T12:10:53.096Z,-0.10
2022-12-16T12:13:53.727Z,-0.10
2022-12-16T12:16:48.005Z,-0.10
2022-12-16T12:19:43.608Z,-0.10
2022-12-16T12:22:37.328Z,-0.10
2022-12-16T12:25:29.247Z,0.00
2022-12-16T12:28:28.370Z,0.00
2022-12-16T12:31:20.886Z,0.10
2022-12-16T12:34:18.259Z,0.10
2022-12-16T12:37:13.156Z,0.00
2022-12-16T12:40:05.796Z,0.00
2022-12-16T12:43:09.011Z,0.00
2022-12-16T12:46:17.105Z,0.00
2022-12-16T12:49:07.723Z,0.00
2022-12-16T12:52:00.555Z,0.10
2022-12-16T12:54:54.116Z,0.10
2022-12-16T12:57:47.171Z,0.00
2022-12-16T13:00:37.184Z,-0.10
2022-12-16T13:03:32.894Z,-0.20
2022-12-16T13:06:19.774Z,-0.30
2022-12-16T13:09:13.986Z,-0.30
2022-12-16T13:12:35.877Z,-0.20
2022-12-16T13:15:23.857Z,-0.20
2022-12-16T13:18:38.462Z,-0.20
2022-12-16T13:21:46.645Z,-0.20
2022-12-16T13:24:46.267Z,-0.40
2022-12-16T13:27:33.236Z,-0.40
2022-12-16T13:30:23.154Z,-0.30
2022-12-16T13:33:13.363Z,-0.30
2022-12-16T13:36:13.864Z,-0.40
2022-12-16T13:39:04.816Z,-0.40
2022-12-16T13:42:16.616Z,-0.40
2022-12-16T13:45:12.724Z,-0.40
2022-12-16T13:48:23.377Z,-0.40
2022-12-16T13:51:19.352Z,-0.30
2022-12-16T13:54:10.197Z,-0.30
2022-12-16T13:56:59.592Z,-0.40
2022-12-16T13:59:49.002Z,-0.50
2022-12-16T14:02:44.475Z,-0.50
2022-12-16T14:05:37.604Z,-0.60
2022-12-16T14:08:28.825Z,-0.60
2022-12-16T14:11:20.141Z,-0.60
2022-12-16T14:14:13.286Z,-0.50
2022-12-16T14:17:09.182Z,-0.40
2022-12-16T14:20:04.972Z,-0.50
2022-12-16T14:23:07.812Z,-0.40
2022-12-16T14:25:55.004Z,-0.40
2022-12-16T14:28:47.337Z,-0.50
2022-12-16T14:31:37.383Z,-0.60
2022-12-16T14:34:23.088Z,-0.60
2022-12-16T14:37:08.452Z,-0.60
2022-12-16T14:39:58.075Z,-0.60
2022-12-16T14:42:45.765Z,-0.50
2022-12-16T14:45:44.990Z,-0.50
2022-12-16T14:48:46.013Z,-0.60
2022-12-16T14:51:41.973Z,-0.50
2022-12-16T14:54:39.679Z,-0.60
2022-12-16T14:57:31.212Z,-0.60
2022-12-16T15:00:32.998Z,-0.70
2022-12-16T15:03:25.521Z,-0.70
2022-12-16T15:06:20.071Z,-0.70
2022-12-16T15:09:09.308Z,-0.70
2022-12-16T15:12:01.494Z,-0.70
2022-12-16T15:14:50.537Z,-0.70
2022-12-16T15:17:39.648Z,-0.70
2022-12-16T15:20:35.170Z,-0.80
2022-12-16T15:23:20.877Z,-0.90
2022-12-16T15:26:13.242Z,-0.90
2022-12-16T15:29:02.021Z,-0.90
2022-12-16T15:31:51.657Z,-0.90
2022-12-16T15:34:46.238Z,-1.00
2022-12-16T15:37:39.786Z,-1.00
2022-12-16T15:40:37.662Z,-1.00
2022-12-16T15:43:23.435Z,-1.10
2022-12-16T15:46:09.943Z,-1.10
2022-12-16T15:48:56.075Z,-1.00
2022-12-16T15:51:49.447Z,-1.10
2022-12-16T15:54:39.082Z,-1.10
2022-12-16T15:57:44.080Z,-1.20
2022-12-16T16:00:39.901Z,-1.20
2022-12-16T16:03:38.344Z,-1.20
2022-12-16T16:06:36.008Z,-1.30
2022-12-16T16:09:31.419Z,-1.40
2022-12-16T16:12:18.141Z,-1.40
2022-12-16T16:15:03.606Z,-1.40
2022-12-16T16:17:48.978Z,-1.40
2022-12-16T16:20:36.607Z,-1.40
2022-12-16T16:23:22.753Z,-1.40
2022-12-16T16:26:08.081Z,-1.40
2022-12-16T16:28:55.090Z,-1.40
2022-12-16T16:31:40.429Z,-1.40
2022-12-16T16:34:25.867Z,-1.40
2022-12-16T16:37:13.582Z,-1.30
2022-12-16T16:39:59.691Z,-1.30
2022-12-16T16:42:44.354Z,-1.30
2022-12-16T16:45:31.657Z,-1.30
2022-12-16T16:48:24.712Z,-1.30
2022-12-16T16:51:13.528Z,-1.30
2022-12-16T16:53:59.093Z,-1.40
2022-12-16T16:56:45.343Z,-1.40
2022-12-16T16:59:31.669Z,-1.40
2022-12-16T17:02:18.781Z,-1.40
2022-12-16T17:05:15.580Z,-1.30
2022-12-16T17:08:01.114Z,-1.40
2022-12-16T17:10:46.764Z,-1.40
2022-12-16T17:13:32.549Z,-1.40
2022-12-16T17:16:18.515Z,-1.30
2022-12-16T17:19:05.536Z,-1.30
2022-12-16T17:21:51.122Z,-1.30
2022-12-16T17:24:40.678Z,-1.30
2022-12-16T17:27:33.156Z,-1.30
2022-12-16T17:30:19.811Z,-1.20
2022-12-16T17:33:05.504Z,-1.20
2022-12-16T17:35:52.417Z,-1.10
2022-12-16T17:38:38.028Z,-1.20
2022-12-16T17:41:23.374Z,-1.20
2022-12-16T17:44:11.416Z,-1.20
2022-12-16T17:46:57.025Z,-1.10
2022-12-16T17:49:42.338Z,-1.10
2022-12-16T17:52:29.244Z,-1.20
2022-12-16T17:55:14.895Z,-1.20
2022-12-16T17:58:00.085Z,-1.20
2022-12-16T18:00:45.548Z,-1.20
2022-12-16T18:03:31.269Z,-1.20
2022-12-16T18:06:17.456Z,-1.20
2022-12-16T18:09:04.469Z,-1.20
2022-12-16T18:11:49.725Z,-1.10
2022-12-16T18:14:35.462Z,-1.20
2022-12-16T18:17:21.016Z,-1.20
2022-12-16T18:20:06.770Z,-1.20
2022-12-16T18:22:52.556Z,-1.20
2022-12-16T18:25:39.522Z,-1.20
2022-12-16T18:28:25.167Z,-1.20
2022-12-16T18:31:10.786Z,-1.10
2022-12-16T18:33:56.344Z,-1.10
2022-12-16T18:36:41.733Z,-1.10
2022-12-16T18:39:35.765Z,-1.20
2022-12-16T18:42:23.280Z,-1.20
2022-12-16T18:45:08.538Z,-1.20
2022-12-16T18:47:53.981Z,-1.30
2022-12-16T18:50:39.378Z,-1.30
2022-12-16T18:53:24.894Z,-1.40
2022-12-16T18:56:19.061Z,-1.40
2022-12-16T18:59:05.816Z,-1.40
2022-12-16T19:01:51.539Z,-1.30
2022-12-16T19:04:37.428Z,-1.40
2022-12-16T19:07:23.512Z,-1.40
2022-12-16T19:10:08.815Z,-1.30
2022-12-16T19:12:54.660Z,-1.30
2022-12-16T19:15:41.865Z,-1.30
2022-12-16T19:18:27.238Z,-1.30
2022-12-16T19:21:09.494Z,-1.30
2022-12-16T19:23:55.038Z,-1.30
2022-12-16T19:26:40.726Z,-1.30
2022-12-16T19:29:26.569Z,-1.30
2022-12-16T19:32:13.334Z,-1.30
2022-12-16T19:34:58.750Z,-1.30
2022-12-16T19:37:44.131Z,-1.30
2022-12-16T19:40:30.300Z,-1.30
2022-12-16T19:43:15.853Z,-1.30
2022-12-16T19:46:01.236Z,-1.30
2022-12-16T19:48:48.253Z,-1.30
2022-12-16T19:51:33.804Z,-1.30
2022-12-16T19:54:19.372Z,-1.30
2022-12-16T19:57:04.753Z,-1.30
2022-12-16T19:59:51.659Z,-1.40
2022-12-16T20:02:37.359Z,-1.40
2022-12-16T20:05:25.148Z,-1.30
2022-12-16T20:08:10.436Z,-1.40
2022-12-16T20:10:56.155Z,-1.40
2022-12-16T20:13:42.067Z,-1.50
2022-12-16T20:16:30.302Z,-1.50
2022-12-16T20:19:16.260Z,-1.50
2022-12-16T20:22:06.934Z,-1.50
2022-12-16T20:25:09.507Z,-1.50
2022-12-16T20:27:55.153Z,-1.50
2022-12-16T20:30:50.327Z,-1.50
2022-12-16T20:33:35.710Z,-1.50
2022-12-16T20:36:23.230Z,-1.50
2022-12-16T20:39:10.307Z,-1.50
2022-12-16T20:41:56.395Z,-1.40
2022-12-16T20:44:41.962Z,-1.40
2022-12-16T20:47:38.848Z,-1.40
2022-12-16T20:50:25.171Z,-1.40
2022-12-16T20:53:10.577Z,-1.40
2022-12-16T20:55:57.583Z,-1.50
2022-12-16T20:58:42.910Z,-1.50
2022-12-16T21:01:28.367Z,-1.50
2022-12-16T21:04:13.832Z,-1.50
2022-12-16T21:06:59.445Z,-1.40
2022-12-16T21:09:45.198Z,-1.50
2022-12-16T21:12:32.203Z,-1.50
2022-12-16T21:15:17.629Z,-1.50
2022-12-16T21:18:02.877Z,-1.50
2022-12-16T21:20:48.157Z,-1.50
2022-12-16T21:23:39.219Z,-1.50
2022-12-16T21:26:24.715Z,-1.50
2022-12-16T21:29:11.634Z,-1.50
2022-12-16T21:31:56.922Z,-1.50
2022-12-16T21:34:42.705Z,-1.60
2022-12-16T21:37:29.689Z,-1.60
2022-12-16T21:40:17.940Z,-1.60
2022-12-16T21:43:03.460Z,-1.50
2022-12-16T21:45:50.038Z,-1.50
2022-12-16T21:48:35.434Z,-1.50
2022-12-16T21:51:21.088Z,-1.50
2022-12-16T21:54:09.672Z,-1.50
2022-12-16T21:56:56.361Z,-1.60
2022-12-16T21:59:44.372Z,-1.60
2022-12-16T22:02:32.343Z,-1.60
2022-12-16T22:05:17.863Z,-1.60
2022-12-16T22:08:03.748Z,-1.60
2022-12-16T22:10:49.107Z,-1.60
2022-12-16T22:13:34.672Z,-1.60
2022-12-16T22:16:19.913Z,-1.60
2022-12-16T22:19:06.557Z,-1.60
2022-12-16T22:21:51.854Z,-1.50
2022-12-16T22:24:37.367Z,-1.50
2022-12-16T22:27:22.689Z,-1.60
2022-12-16T22:30:08.114Z,-1.60
2022-12-16T22:32:53.853Z,-1.60
2022-12-16T22:35:43.364Z,-1.60
2022-12-16T22:38:29.002Z,-1.60
2022-12-16T22:41:14.936Z,-1.60
2022-12-16T22:44:00.898Z,-1.60
2022-12-16T22:46:46.405Z,-1.60
2022-12-16T22:49:32.277Z,-1.60
2022-12-16T22:52:18.886Z,-1.60
2022-12-16T22:55:04.569Z,-1.50
2022-12-16T22:57:53.453Z,-1.60
2022-12-16T23:00:39.761Z,-1.60
2022-12-16T23:03:25.555Z,-1.70
2022-12-16T23:06:10.964Z,-1.70
2022-12-16T23:08:57.521Z,-1.80
2022-12-16T23:11:46.411Z,-1.90
2022-12-16T23:14:32.061Z,-1.80
2022-12-16T23:17:17.436Z,-1.80
2022-12-16T23:20:02.963Z,-1.80
2022-12-16T23:22:48.426Z,-1.80
2022-12-16T23:25:35.322Z,-1.80
2022-12-16T23:28:21.065Z,-1.80
2022-12-16T23:31:10.691Z,-1.90
2022-12-16T23:33:56.798Z,-1.90
2022-12-16T23:36:42.244Z,-1.80
2022-12-16T23:39:27.709Z,-1.80
2022-12-16T23:42:14.658Z,-1.80
2022-12-16T23:44:56.670Z,-1.80
2022-12-16T23:47:42.255Z,-1.80
2022-12-16T23:50:28.263Z,-1.80
2022-12-16T23:53:21.436Z,-1.80
2022-12-16T23:56:06.993Z,-1.80
2022-12-16T23:58:53.734Z,-1.80
